Time;durP1;ratioP1;P1;durP2;ratioP2;P2;SDS_P1;SDS_P2;PMS_P1;PMS_P2;Temp;Humidity;BMP_temperature;BMP_pressure;BME280_temperature;BME280_humidity;BME280_pressure;Samples;Min_cycle;Max_cycle;Signal;HPM_P1;HPM_P2
2021/12/17 00:08:32;;;;;;;1.30;0.77;;;0.30;1.40;;;1.31;100.00;97297.31;646516;216;42233;-75
2021/12/17 00:11:14;;;;;;;1.62;1.52;;;0.30;1.40;;;1.26;100.00;97301.31;648032;212;31651;-75
2021/12/17 00:13:56;;;;;;;1.20;1.17;;;0.20;1.40;;;1.25;100.00;97298.42;647482;216;31587;-75
2021/12/17 00:16:38;;;;;;;2.65;1.73;;;0.30;1.40;;;1.34;100.00;97296.20;646499;212;31574;-74
2021/12/17 00:19:38;;;;;;;2.90;1.50;;;0.30;1.40;;;1.44;100.00;97293.23;646599;216;31495;-75
2021/12/17 00:50:33;;;;;;;3.00;1.60;;;0.50;1.40;;;1.58;100.00;97286.41;646537;216;31552;-74
2021/12/17 00:52:55;;;;;;;1.30;1.20;;;0.60;1.40;;;1.71;100.00;97288.17;647005;216;31530;-75
2021/12/17 00:55:36;;;;;;;1.10;0.70;;;0.60;1.40;;;1.76;100.00;97293.82;646812;216;31607;-73
2021/12/17 00:58:18;;;;;;;0.90;0.65;;;0.60;1.40;;;1.77;100.00;97298.47;647496;212;31528;-73
2021/12/17 01:03:34;;;;;;;2.67;1.08;;;0.70;1.40;;;1.96;100.00;97305.33;619430;225;31895;-75
2021/12/17 01:06:19;;;;;;;1.23;1.12;;;0.70;1.40;;;1.91;100.00;97308.41;609228;222;32042;-74
2021/12/17 01:09:00;;;;;;;1.40;1.30;;;0.70;1.40;;;1.89;100.00;97302.70;631956;217;31821;-73
2021/12/17 01:11:42;;;;;;;1.30;1.20;;;0.70;1.40;;;1.94;100.00;97306.23;619872;225;31866;-74
2021/12/17 01:14:24;;;;;;;2.05;1.10;;;0.70;1.40;;;1.97;100.00;97307.67;648348;212;31494;-75
2021/12/17 01:17:06;;;;;;;0.98;0.98;;;0.70;1.40;;;2.15;100.00;97307.88;620244;225;31990;-75
2021/12/17 01:20:18;;;;;;;0.90;0.90;;;0.80;1.40;;;2.16;100.00;97306.62;645901;212;31634;-74
2021/12/17 01:22:50;;;;;;;1.23;1.12;;;0.80;1.40;;;2.18;100.00;97293.20;646564;216;31591;-74
2021/12/17 01:25:41;;;;;;;3.00;2.25;;;0.90;1.40;;;2.24;100.00;97293.51;618015;226;32677;-74
2021/12/17 01:35:51;;;;;;;4.55;2.90;;;0.70;1.40;;;1.79;100.00;97283.11;647140;216;32386;-74
2021/12/17 01:44:18;;;;;;;1.70;0.70;;;0.70;1.40;;;1.93;100.00;97264.13;647564;216;32278;-75
2021/12/17 01:47:00;;;;;;;1.23;1.15;;;0.80;1.40;;;1.89;100.00;97264.45;647016;216;31595;-75
2021/12/17 02:01:02;;;;;;;0.80;0.70;;;0.80;1.40;;;1.80;100.00;97248.16;646744;216;31966;-75
2021/12/17 02:06:21;;;;;;;2.70;1.25;;;0.90;1.40;;;1.98;100.00;97260.30;637559;216;31682;-75
2021/12/17 02:09:04;;;;;;;1.10;1.00;;;0.90;1.40;;;2.05;100.00;97251.59;646901;212;31555;-74
2021/12/17 02:29:32;;;;;;;2.90;1.83;;;1.20;1.40;;;2.54;100.00;97231.80;646476;216;31557;-74
2021/12/17 02:35:51;;;;;;;1.27;1.17;;;1.30;1.40;;;2.64;100.00;97226.13;647249;216;31500;-75
2021/12/17 02:38:35;;;;;;;2.60;2.40;;;1.30;1.40;;;2.77;100.00;97221.34;646189;216;32106;-75
2021/12/17 02:46:49;;;;;;;0.90;0.90;;;1.50;1.40;;;2.92;100.00;97215.53;647616;216;31528;-74
2021/12/17 02:49:31;;;;;;;1.70;1.00;;;1.40;1.40;;;3.05;100.00;97212.95;646238;216;31557;-73
2021/12/17 02:52:13;;;;;;;3.90;1.23;;;1.40;1.40;;;3.01;100.00;97204.13;643264;213;31503;-75
2021/12/17 02:54:54;;;;;;;1.83;1.42;;;1.50;1.40;;;3.03;100.00;97212.70;647256;216;31591;-74
2021/12/17 02:57:36;;;;;;;1.00;0.90;;;1.50;1.40;;;2.97;100.00;97200.72;646608;216;31651;-74
2021/12/17 03:00:18;;;;;;;0.75;0.75;;;1.50;1.40;;;3.05;100.00;97203.08;646232;216;31518;-75
2021/12/17 03:03:03;;;;;;;2.70;1.70;;;1.50;1.40;;;3.12;100.00;97203.96;619264;222;32533;-75
2021/12/17 03:05:44;;;;;;;1.67;1.58;;;1.50;1.40;;;3.20;100.00;97202.91;639658;212;31727;-75
2021/12/17 03:08:26;;;;;;;2.20;0.82;;;1.50;1.40;;;3.13;100.00;97209.26;648086;212;31504;-75
2021/12/17 03:11:10;;;;;;;2.20;2.00;;;1.60;1.40;;;3.25;100.00;97209.49;646757;216;31929;-75
2021/12/17 03:13:52;;;;;;;1.98;1.77;;;1.60;1.40;;;3.29;100.00;97212.06;647045;216;31536;-74
2021/12/17 03:16:41;;;;;;;2.08;1.70;;;1.60;1.40;;;3.23;100.00;97212.66;646769;212;31588;-75
2021/12/17 03:25:00;;;;;;;2.62;2.10;;;1.70;1.40;;;2.94;100.00;97207.00;646864;212;31535;-75
2021/12/17 03:27:42;;;;;;;6.05;2.20;;;1.60;1.40;;;2.94;100.00;97203.08;619949;226;31906;-74
2021/12/17 03:30:24;;;;;;;2.08;1.35;;;1.60;1.40;;;2.96;100.00;97210.75;646114;216;31582;-75
2021/12/17 03:35:51;;;;;;;2.70;1.02;;;1.70;1.40;;;3.28;100.00;97213.42;642442;216;32012;-75
2021/12/17 03:38:33;;;;;;;4.85;1.90;;;1.80;1.40;;;3.45;100.00;97211.78;647114;216;31532;-75
2021/12/17 03:41:22;;;;;;;2.12;1.33;;;1.80;1.40;;;3.53;100.00;97222.02;618482;222;31913;-74
2021/12/17 03:44:00;;;;;;;1.75;1.50;;;1.80;1.40;;;3.34;100.00;97217.15;646612;212;31506;-75
2021/12/17 03:46:47;;;;;;;1.80;1.70;;;1.80;1.40;;;3.23;100.00;97219.73;648355;216;31586;-75
2021/12/17 03:49:29;;;;;;;2.30;1.40;;;1.80;1.40;;;3.57;100.00;97219.08;619945;226;31934;-74
2021/12/17 03:52:16;;;;;;;2.60;1.50;;;1.90;1.40;;;3.55;100.00;97223.57;618578;226;32044;-75
2021/12/17 03:54:56;;;;;;;3.70;3.40;;;1.90;1.40;;;3.35;100.00;97221.99;646859;212;31501;-74
2021/12/17 03:57:39;;;;;;;4.30;1.40;;;1.90;1.40;;;3.35;100.00;97217.81;646271;212;31540;-75
2021/12/17 04:00:21;;;;;;;2.08;1.90;;;1.90;1.40;;;3.28;100.00;97216.29;619304;222;31893;-75
2021/12/17 04:03:19;;;;;;;0.90;0.90;;;1.90;1.40;;;3.30;100.00;97220.94;647511;216;32933;-74
2021/12/17 04:06:00;;;;;;;1.10;1.10;;;1.90;1.40;;;3.46;100.00;97217.28;638724;216;31830;-75
2021/12/17 04:08:42;;;;;;;2.00;1.40;;;1.90;1.40;;;3.40;100.00;97211.44;645947;212;31598;-76
2021/12/17 04:11:24;;;;;;;1.60;1.50;;;1.90;1.40;;;3.22;100.00;97219.64;647189;216;32841;-75
2021/12/17 04:14:05;;;;;;;1.90;1.80;;;1.90;1.40;;;3.33;100.00;97219.27;646178;216;42318;-74
2021/12/17 04:16:47;;;;;;;1.35;1.10;;;1.90;1.40;;;3.37;100.00;97214.23;618174;226;31946;-74
2021/12/17 04:19:30;;;;;;;1.50;1.20;;;1.90;1.40;;;3.33;100.00;97206.15;646766;213;31526;-74
2021/12/17 04:22:14;;;;;;;1.70;1.60;;;1.90;1.40;;;3.43;100.00;97201.67;647439;216;31612;-75
2021/12/17 04:24:56;;;;;;;1.40;1.30;;;1.90;1.40;;;3.55;100.00;97204.30;646658;216;31515;-73
2021/12/17 04:27:38;;;;;;;1.50;1.23;;;1.90;1.40;;;3.45;100.00;97210.17;620050;222;31948;-75
2021/12/17 04:30:19;;;;;;;1.62;1.33;;;1.90;1.40;;;3.39;100.00;97205.30;647271;216;31555;-75
2021/12/17 04:33:01;;;;;;;1.60;1.45;;;1.90;1.40;;;3.41;100.00;97194.80;646204;212;31642;-75
2021/12/17 04:35:52;;;;;;;1.58;1.48;;;1.90;1.40;;;3.37;100.00;97181.80;648149;216;31772;-75
2021/12/17 04:38:34;;;;;;;1.95;1.50;;;1.90;1.40;;;3.30;100.00;97175.81;647345;216;31565;-75
2021/12/17 04:44:24;;;;;;;2.28;1.80;;;1.80;1.40;;;3.22;100.00;97172.69;618402;222;31918;-72
2021/12/17 04:57:16;;;;;;;2.15;2.05;;;1.90;1.40;;;3.37;100.00;97173.18;646389;216;31551;-74
2021/12/17 04:58:05;;;;;;;1.20;1.10;;;1.90;1.40;;;2.99;100.00;97175.41;646637;212;42150;-75
2021/12/17 05:00:47;;;;;;;1.60;1.20;;;1.80;1.40;;;3.08;100.00;97171.35;619943;222;31819;-75
2021/12/17 05:03:28;;;;;;;1.40;1.30;;;1.80;1.40;;;3.02;100.00;97161.23;618618;222;32154;-75
2021/12/17 05:06:11;;;;;;;2.40;1.92;;;1.80;1.40;;;2.83;100.00;97174.09;638432;216;31750;-75
2021/12/17 05:08:57;;;;;;;2.15;1.80;;;1.70;1.40;;;2.91;100.00;97171.41;646682;212;31674;-75
2021/12/17 05:19:53;;;;;;;2.95;1.00;;;1.80;1.40;;;2.75;100.00;97158.72;646881;216;31570;-75
2021/12/17 05:22:33;;;;;;;1.40;1.05;;;1.80;1.40;;;2.81;100.00;97152.96;646016;216;31575;-74
2021/12/17 05:25:17;;;;;;;1.30;0.90;;;1.80;1.40;;;2.89;100.00;97156.80;647231;216;31820;-74
2021/12/17 05:28:02;;;;;;;1.37;1.27;;;1.80;1.40;;;2.79;100.00;97150.92;647672;216;31607;-75
2021/12/17 05:30:46;;;;;;;1.65;1.00;;;1.80;1.40;;;2.79;100.00;97149.53;647365;216;31524;-74
2021/12/17 05:35:52;;;;;;;1.73;1.20;;;1.80;1.40;;;2.82;100.00;97152.47;620322;222;32604;-75
2021/12/17 05:38:34;;;;;;;2.28;1.40;;;1.80;1.40;;;2.87;100.00;97159.19;646069;216;42160;-75
2021/12/17 05:41:16;;;;;;;2.80;1.80;;;1.80;1.40;;;2.93;100.00;97162.39;646313;216;31533;-75
2021/12/17 05:43:57;;;;;;;2.40;1.60;;;1.80;1.40;;;2.93;100.00;97166.19;647421;212;31595;-75
2021/12/17 05:49:29;;;;;;;0.70;0.62;;;2.00;1.40;;;3.28;100.00;97171.27;645811;216;31574;-75
2021/12/17 05:52:11;;;;;;;1.15;1.15;;;2.10;1.40;;;3.49;100.00;97177.75;647107;212;31532;-75
2021/12/17 05:54:56;;;;;;;3.22;1.90;;;2.20;1.40;;;3.59;100.00;97193.03;646667;216;31508;-74
2021/12/17 05:57:37;;;;;;;1.62;1.30;;;2.20;1.40;;;3.70;100.00;97203.47;646279;212;31721;-75
2021/12/17 06:00:19;;;;;;;1.25;1.15;;;2.30;1.40;;;3.75;100.00;97208.98;646452;216;31848;-75
2021/12/17 06:03:02;;;;;;;1.27;1.17;;;2.30;1.40;;;3.82;100.00;97204.31;648279;212;42738;-75
2021/12/17 06:05:43;;;;;;;2.10;1.20;;;2.40;1.40;;;3.88;100.00;97212.84;640271;216;31820;-75
2021/12/17 06:08:29;;;;;;;2.08;1.87;;;2.50;1.40;;;3.96;100.00;97207.33;647181;216;42720;-75
2021/12/17 06:11:12;;;;;;;1.27;1.20;;;2.50;1.40;;;3.97;100.00;97206.94;647122;216;31520;-74
2021/12/17 06:13:53;;;;;;;1.12;1.02;;;2.60;1.40;;;3.97;100.00;97206.58;646718;212;31520;-75
2021/12/17 06:16:38;;;;;;;1.23;1.05;;;2.60;1.40;;;3.96;100.00;97216.09;646280;213;31562;-74
2021/12/17 06:19:20;;;;;;;1.48;1.37;;;2.50;1.40;;;4.00;100.00;97220.84;645775;212;31613;-75
2021/12/17 06:22:04;;;;;;;2.22;0.75;;;2.50;1.40;;;3.91;100.00;97235.84;646716;216;32140;-76
2021/12/17 06:24:46;;;;;;;0.50;0.50;;;2.50;1.40;;;4.01;100.00;97236.84;646360;212;33535;-75
2021/12/17 06:27:28;;;;;;;2.40;1.00;;;2.60;1.40;;;4.13;100.00;97243.83;647577;216;31610;-75
2021/12/17 06:30:13;;;;;;;1.20;0.70;;;2.60;1.40;;;4.22;100.00;97241.70;618731;222;31871;-75
2021/12/17 06:32:55;;;;;;;0.67;0.67;;;2.70;1.40;;;4.28;100.00;97236.27;647799;216;33197;-75
2021/12/17 06:35:51;;;;;;;1.00;1.00;;;2.80;1.40;;;4.18;100.00;97231.03;647484;212;31593;-75
2021/12/17 06:38:33;;;;;;;2.03;1.00;;;2.80;1.40;;;4.07;100.00;97227.59;646892;216;31544;-75
2021/12/17 06:41:14;;;;;;;0.50;0.50;;;2.90;1.40;;;4.17;100.00;97218.83;619807;226;31887;-74
2021/12/17 06:43:57;;;;;;;2.00;1.00;;;2.90;1.40;;;4.26;100.00;97219.28;646461;212;31622;-75
2021/12/17 06:46:58;;;;;;;1.00;0.80;;;2.90;1.40;;;4.43;100.00;97219.34;646599;216;31700;-75
2021/12/17 06:55:45;;;;;;;0.80;0.68;;;2.80;1.40;;;4.29;100.00;97226.66;646870;212;31575;-75
2021/12/17 06:58:38;;;;;;;1.10;1.00;;;2.60;1.40;;;4.14;100.00;97225.81;647356;212;42373;-75
2021/12/17 07:06:27;;;;;;;0.80;0.50;;;2.30;1.40;;;3.44;100.00;97212.27;647062;216;31564;-74
2021/12/17 07:09:28;;;;;;;1.12;0.60;;;2.30;1.40;;;3.37;100.00;97217.34;647194;212;31891;-75
2021/12/17 07:11:53;;;;;;;0.60;0.57;;;2.10;1.40;;;3.22;100.00;97212.41;646444;212;31518;-75
2021/12/17 07:17:15;;;;;;;1.30;0.90;;;2.10;1.40;;;3.02;100.00;97203.13;642977;216;32285;-75
2021/12/17 07:22:48;;;;;;;0.70;0.50;;;1.80;1.40;;;2.82;100.00;97198.05;647648;216;31589;-74
2021/12/17 07:35:55;;;;;;;2.12;1.20;;;1.70;1.40;;;2.74;100.00;97213.35;620075;222;32617;-75
2021/12/17 07:38:39;;;;;;;1.12;1.10;;;1.60;1.40;;;2.72;100.00;97210.08;646177;212;31534;-75
2021/12/17 07:41:18;;;;;;;1.85;0.90;;;1.50;1.40;;;2.61;100.00;97214.28;646903;216;31524;-75
2021/12/17 07:44:05;;;;;;;0.80;0.80;;;1.30;1.40;;;2.64;100.00;97218.73;647848;212;31607;-74
2021/12/17 07:46:46;;;;;;;0.80;0.80;;;1.30;1.40;;;2.60;100.00;97222.55;647423;216;31495;-75
2021/12/17 07:49:32;;;;;;;1.73;1.58;;;1.30;1.40;;;2.57;100.00;97229.84;646066;216;31571;-76
2021/12/17 07:52:13;;;;;;;1.20;1.10;;;1.20;1.40;;;2.53;100.00;97231.92;647239;212;31591;-75
2021/12/17 07:54:59;;;;;;;2.60;1.70;;;1.20;1.40;;;2.53;100.00;97238.28;646047;216;31949;-74
2021/12/17 07:57:41;;;;;;;2.00;1.90;;;1.20;1.40;;;2.63;100.00;97243.57;618308;226;31955;-74
2021/12/17 08:02:59;;;;;;;1.70;0.70;;;1.30;1.40;;;2.54;100.00;97245.80;646782;212;31661;-74
2021/12/17 08:05:42;;;;;;;1.40;1.00;;;1.60;1.40;;;2.61;100.00;97242.97;645322;216;31548;-75
2021/12/17 08:08:29;;;;;;;1.23;1.12;;;1.70;1.40;;;2.66;100.00;97238.06;601362;233;32224;-75
2021/12/17 08:11:11;;;;;;;1.70;1.60;;;1.80;1.40;;;2.71;100.00;97238.30;646471;216;31802;-76
2021/12/17 08:13:55;;;;;;;1.30;0.85;;;1.80;1.40;;;2.74;100.00;97238.25;647053;212;31579;-75
2021/12/17 08:16:42;;;;;;;2.30;0.90;;;1.80;1.40;;;2.84;100.00;97247.49;647395;212;31488;-75
2021/12/17 08:24:57;;;;;;;1.20;1.10;;;2.20;1.40;;;2.97;100.00;97239.84;619761;226;31941;-75
2021/12/17 08:30:39;;;;;;;1.20;1.10;;;2.30;1.40;;;3.30;100.00;97238.53;648273;212;32148;-75
2021/12/17 08:35:51;;;;;;;1.80;1.60;;;2.50;1.40;;;3.50;100.00;97229.05;646410;212;32400;-76
2021/12/17 08:38:33;;;;;;;1.52;1.42;;;2.70;1.40;;;3.81;100.00;97226.83;647388;212;31545;-74
2021/12/17 08:41:14;;;;;;;2.30;1.35;;;2.90;1.40;;;3.79;100.00;97224.09;646409;216;31556;-76
2021/12/17 08:43:56;;;;;;;1.50;0.80;;;3.10;1.40;;;4.19;100.00;97223.93;645928;212;31550;-76
2021/12/17 08:46:38;;;;;;;0.80;0.80;;;4.30;1.40;;;5.55;100.00;97228.63;647295;216;31563;-75
2021/12/17 08:49:19;;;;;;;1.83;1.73;;;6.90;1.40;;;6.75;100.00;97227.29;619129;222;31851;-76
2021/12/17 08:52:04;;;;;;;3.17;2.97;;;7.90;1.40;;;8.14;100.00;97223.41;646207;216;31583;-76
2021/12/17 08:54:46;;;;;;;2.50;1.90;;;8.10;1.40;;;8.42;100.00;97221.52;647683;216;31556;-76
2021/12/17 08:57:28;;;;;;;2.03;1.90;;;8.50;1.40;;;10.71;100.00;97223.12;646672;212;32247;-76
2021/12/17 09:00:13;;;;;;;3.17;2.37;;;9.70;1.40;;;11.81;100.00;97227.59;647865;216;32858;-77
2021/12/17 09:03:06;;;;;;;3.28;2.10;;;10.40;1.40;;;10.90;100.00;97227.88;620333;222;32516;-76
2021/12/17 09:05:47;;;;;;;2.70;2.10;;;9.00;1.40;;;11.33;100.00;97227.11;637627;216;31792;-76
2021/12/17 09:08:31;;;;;;;2.70;2.20;;;9.70;1.40;;;11.29;100.00;97223.14;618545;226;31880;-76
2021/12/17 09:11:13;;;;;;;2.85;2.08;;;9.80;1.40;;;10.58;100.00;97229.95;647058;216;31625;-73
2021/12/17 09:13:58;;;;;;;3.37;2.60;;;9.20;1.40;;;13.39;100.00;97228.50;618826;226;31905;-75
2021/12/17 09:16:39;;;;;;;2.27;2.07;;;10.90;1.40;;;13.78;84.07;97218.99;647151;216;31558;-75
2021/12/17 09:19:21;;;;;;;2.87;2.00;;;11.10;1.40;;;14.14;100.00;97218.70;647321;212;31866;-74
2021/12/17 09:22:03;;;;;;;3.20;2.10;;;11.00;1.40;;;14.26;99.54;97218.51;646875;212;32164;-75
2021/12/17 09:24:45;;;;;;;2.53;2.10;;;10.90;1.40;;;15.61;91.44;97216.44;646245;212;31792;-74
2021/12/17 09:27:26;;;;;;;2.60;2.30;;;11.70;1.40;;;12.92;80.02;97216.77;647070;216;31572;-78
2021/12/17 09:30:09;;;;;;;2.45;2.25;;;9.80;1.40;;;10.62;94.37;97225.08;647444;216;32202;-77
2021/12/17 09:32:51;;;;;;;2.40;2.20;;;8.80;1.40;;;11.66;94.58;97218.16;648108;216;31544;-77
2021/12/17 09:35:51;;;;;;;2.13;1.93;;;10.10;1.40;;;11.02;99.08;97226.95;646952;216;31635;-77
2021/12/17 09:38:32;;;;;;;2.30;2.00;;;9.50;1.40;;;9.97;100.00;97226.69;647618;216;31760;-75
2021/12/17 09:41:14;;;;;;;2.30;1.90;;;8.10;1.40;;;10.73;100.00;97222.81;646402;216;31733;-74
2021/12/17 09:43:59;;;;;;;3.03;2.70;;;9.90;1.40;;;13.30;86.97;97223.50;616939;226;32004;-77
2021/12/17 09:46:40;;;;;;;2.85;2.47;;;11.00;1.40;;;10.86;94.11;97229.76;646650;213;31634;-74
2021/12/17 09:49:23;;;;;;;4.20;2.60;;;9.40;1.40;;;11.04;93.86;97224.46;632344;217;32090;-75
2021/12/17 09:52:05;;;;;;;2.30;2.10;;;9.60;1.40;;;10.33;100.00;97223.45;647541;212;31703;-75
2021/12/17 09:55:46;;;;;;;2.50;2.30;;;10.60;1.40;;;14.18;79.05;97206.62;646556;216;31612;-74
2021/12/17 09:58:30;;;;;;;2.78;2.30;;;12.20;1.40;;;12.25;85.94;97211.39;631609;217;31778;-74
2021/12/17 10:01:12;;;;;;;2.83;2.62;;;10.40;1.40;;;13.75;81.26;97206.06;646572;212;31545;-74
2021/12/17 10:04:11;;;;;;;4.63;2.30;;;10.90;1.40;;;14.86;77.74;97201.33;619417;226;32007;-75
2021/12/17 10:06:53;;;;;;;3.75;2.05;;;11.70;1.40;;;16.47;74.07;97194.30;618778;226;31910;-75
2021/12/17 10:09:35;;;;;;;3.10;2.30;;;12.40;1.40;;;20.07;65.33;97194.55;619159;222;31865;-75
2021/12/17 10:12:16;;;;;;;3.30;2.70;;;14.40;1.40;;;21.92;73.09;97191.84;646172;216;31536;-75
2021/12/17 10:15:14;;;;;;;2.97;2.55;;;15.00;1.40;;;19.08;70.42;97187.55;644368;216;32915;-75
2021/12/17 10:18:01;;;;;;;3.60;2.90;;;13.60;1.40;;;19.60;48.80;97188.48;647297;216;31833;-75
2021/12/17 10:20:42;;;;;;;3.08;2.60;;;13.70;1.40;;;22.33;56.97;97182.87;647315;212;31539;-75
2021/12/17 10:23:24;;;;;;;2.60;2.40;;;15.30;1.40;;;22.34;62.21;97179.82;642584;216;32195;-75
2021/12/17 10:26:05;;;;;;;2.87;2.58;;;14.90;1.40;;;23.66;48.54;97170.23;647564;212;42254;-75
2021/12/17 10:28:55;;;;;;;2.95;2.65;;;15.00;1.40;;;23.71;46.52;97166.91;646643;212;42902;-75
2021/12/17 10:31:36;;;;;;;2.50;2.30;;;14.70;1.40;;;23.99;45.58;97164.64;646660;216;31955;-76
2021/12/17 10:35:51;;;;;;;3.00;2.70;;;14.70;1.40;;;23.09;45.64;97165.23;647199;216;31673;-75
2021/12/17 10:38:33;;;;;;;3.17;2.67;;;15.20;1.40;;;24.14;46.23;97163.83;647059;216;31530;-75
2021/12/17 10:41:15;;;;;;;2.90;2.60;;;15.80;1.40;;;24.76;41.89;97165.16;647609;216;31646;-75
2021/12/17 10:44:00;;;;;;;3.22;2.90;;;15.60;1.40;;;23.30;43.29;97172.23;647248;216;31624;-75
2021/12/17 10:46:55;;;;;;;3.10;2.60;;;14.70;1.40;;;24.11;41.98;97160.11;646214;215;31759;-75
2021/12/17 10:49:19;;;;;;;3.72;2.70;;;15.80;1.40;;;22.89;46.21;97157.63;648227;216;31534;-75
2021/12/17 10:52:06;;;;;;;3.37;2.45;;;16.20;1.40;;;23.63;44.61;97163.15;646724;216;31679;-75
2021/12/17 10:54:46;;;;;;;3.08;2.70;;;15.70;1.40;;;24.27;41.97;97171.05;646633;216;31743;-75
2021/12/17 10:57:29;;;;;;;2.85;2.22;;;15.00;1.40;;;22.03;52.96;97173.77;647558;213;31542;-76
2021/12/17 11:00:16;;;;;;;3.10;2.80;;;14.80;1.40;;;24.58;42.84;97171.91;647035;216;32145;-75
2021/12/17 11:02:56;;;;;;;3.50;2.70;;;15.20;1.40;;;24.12;42.39;97168.88;646275;212;32217;-75
2021/12/17 11:05:37;;;;;;;4.32;2.62;;;15.30;1.40;;;24.24;42.18;97171.69;640923;216;31927;-75
2021/12/17 11:08:24;;;;;;;2.80;2.30;;;16.00;1.40;;;24.07;39.91;97178.00;647648;212;32250;-75
2021/12/17 11:11:08;;;;;;;2.70;2.50;;;15.10;1.40;;;21.93;40.25;97178.31;646419;216;31982;-75
2021/12/17 11:13:53;;;;;;;2.80;2.50;;;13.60;1.40;;;22.63;45.65;97173.13;647842;216;31851;-75
2021/12/17 11:16:36;;;;;;;3.70;2.47;;;14.20;1.40;;;23.97;41.03;97175.16;646383;216;42183;-75
2021/12/17 11:19:19;;;;;;;2.45;2.25;;;15.20;1.40;;;23.80;38.59;97175.91;646649;212;31854;-75
2021/12/17 11:22:00;;;;;;;2.40;2.20;;;15.20;1.40;;;23.11;42.30;97171.73;647369;212;42380;-76
2021/12/17 11:24:42;;;;;;;2.75;2.30;;;15.40;1.40;;;24.28;39.72;97159.41;646915;212;42190;-75
2021/12/17 11:27:24;;;;;;;2.83;2.47;;;16.00;1.40;;;24.02;41.10;97156.72;619169;222;42686;-76
2021/12/17 11:30:10;;;;;;;3.92;2.72;;;16.50;1.40;;;22.35;41.86;97155.74;646084;216;31527;-76
2021/12/17 11:32:52;;;;;;;2.78;2.50;;;15.50;1.40;;;21.58;41.80;97159.35;645742;212;31570;-75
2021/12/17 11:35:53;;;;;;;2.30;2.03;;;15.00;1.40;;;20.59;47.71;97158.44;647287;216;32127;-75
2021/12/17 11:38:46;;;;;;;2.80;2.30;;;14.20;1.40;;;19.31;51.68;97159.36;647487;212;32162;-75
2021/12/17 11:44:08;;;;;;;2.80;2.60;;;12.70;1.40;;;16.50;64.06;97152.78;647493;216;32298;-75
2021/12/17 11:47:06;;;;;;;4.28;2.90;;;12.70;1.40;;;18.98;56.45;97155.30;647319;216;31536;-76
2021/12/17 11:49:49;;;;;;;4.22;2.10;;;14.40;1.40;;;17.70;58.48;97152.99;646149;216;31613;-75
2021/12/17 11:55:28;;;;;;;2.40;2.20;;;12.90;1.40;;;17.85;58.11;97150.94;618336;226;32083;-76
2021/12/17 11:58:14;;;;;;;3.08;2.60;;;13.00;1.40;;;17.33;60.94;97150.69;646281;216;31770;-77
2021/12/17 12:00:57;;;;;;;3.33;2.30;;;13.00;1.40;;;18.16;56.83;97155.23;646550;216;31529;-76
2021/12/17 12:03:41;;;;;;;3.10;2.45;;;12.10;1.40;;;14.70;71.13;97162.77;646580;212;31556;-77
2021/12/17 12:06:34;;;;;;;2.92;2.62;;;10.90;1.40;;;16.49;65.40;97152.03;636559;212;42340;-75
2021/12/17 12:09:18;;;;;;;4.53;2.50;;;11.20;1.40;;;15.36;68.59;97157.39;647138;216;42270;-76
2021/12/17 12:12:10;;;;;;;2.97;2.70;;;10.90;1.40;;;14.53;74.74;97159.14;646655;212;31555;-75
2021/12/17 12:14:50;;;;;;;4.80;3.45;;;10.80;1.40;;;14.87;74.28;97161.50;646748;216;31636;-75
2021/12/17 12:18:06;;;;;;;2.50;2.30;;;10.80;1.40;;;13.72;78.59;97154.94;647056;216;31673;-75
2021/12/17 12:20:51;;;;;;;2.45;2.28;;;10.40;1.40;;;13.46;78.19;97155.72;646515;216;31563;-74
2021/12/17 12:23:42;;;;;;;3.22;2.80;;;9.70;1.40;;;11.55;92.82;97159.84;647300;212;31564;-77
2021/12/17 12:26:27;;;;;;;3.25;2.60;;;8.10;1.40;;;10.61;100.00;97161.59;620165;226;32473;-75
2021/12/17 12:29:10;;;;;;;3.08;2.70;;;7.50;1.40;;;11.26;100.00;97155.58;646763;216;31547;-76
2021/12/17 12:31:53;;;;;;;2.67;2.30;;;7.60;1.40;;;9.51;100.00;97163.72;646099;212;32112;-76
2021/12/17 12:35:58;;;;;;;2.80;2.28;;;6.60;1.40;;;9.07;100.00;97165.16;646897;212;31596;-75
2021/12/17 12:38:39;;;;;;;3.50;2.20;;;6.70;1.40;;;8.41;100.00;97166.68;647461;212;31555;-76
2021/12/17 12:41:21;;;;;;;2.53;2.25;;;6.50;1.40;;;7.40;100.00;97166.50;647227;216;31582;-77
2021/12/17 12:44:02;;;;;;;3.10;2.70;;;6.00;1.40;;;7.50;100.00;97168.88;646258;212;31601;-76
2021/12/17 12:46:52;;;;;;;3.00;2.70;;;6.00;1.40;;;7.24;100.00;97172.97;646138;216;36966;-75
2021/12/17 12:49:50;;;;;;;3.40;2.50;;;5.80;1.40;;;7.23;100.00;97179.27;646100;216;31608;-77
2021/12/17 12:52:41;;;;;;;3.15;1.90;;;5.80;1.40;;;7.03;100.00;97172.16;646981;212;31543;-76
2021/12/17 12:55:34;;;;;;;4.00;2.58;;;5.50;1.40;;;6.66;100.00;97179.42;646418;212;31547;-76
2021/12/17 12:58:17;;;;;;;2.23;1.83;;;5.40;1.40;;;7.19;100.00;97175.46;647112;216;42792;-76
2021/12/17 13:01:01;;;;;;;2.37;2.17;;;5.40;1.40;;;6.87;100.00;97181.56;647174;216;31586;-76
2021/12/17 13:03:41;;;;;;;2.33;2.13;;;5.30;1.40;;;6.47;100.00;97184.70;645958;212;31549;-76
2021/12/17 13:06:22;;;;;;;2.28;2.08;;;5.10;1.40;;;5.98;100.00;97180.22;636739;212;31746;-75
2021/12/17 13:09:04;;;;;;;2.33;1.92;;;4.90;1.40;;;5.69;100.00;97182.26;619332;226;42735;-76
2021/12/17 13:11:46;;;;;;;2.40;1.97;;;4.80;1.40;;;6.36;100.00;97183.48;647361;212;31557;-75
2021/12/17 13:14:27;;;;;;;2.47;2.17;;;4.90;1.40;;;6.38;100.00;97177.86;647171;212;31606;-74
2021/12/17 13:22:56;;;;;;;1.97;1.63;;;5.00;1.40;;;6.99;100.00;97176.23;620423;226;31890;-76
2021/12/17 13:25:35;;;;;;;2.27;2.10;;;5.10;1.40;;;7.15;100.00;97176.78;647340;216;31630;-76
2021/12/17 13:28:21;;;;;;;3.43;2.27;;;5.10;1.40;;;6.87;100.00;97178.97;646998;216;31575;-76
2021/12/17 13:31:05;;;;;;;2.87;2.20;;;5.00;1.40;;;7.31;100.00;97172.16;647260;212;31556;-76
2021/12/17 13:35:53;;;;;;;1.70;1.60;;;5.00;1.40;;;7.23;100.00;97168.15;646769;216;32033;-75
2021/12/17 13:38:38;;;;;;;2.50;2.30;;;5.10;1.40;;;6.97;100.00;97172.14;647257;212;31565;-76
2021/12/17 13:41:21;;;;;;;3.50;3.20;;;5.10;1.40;;;7.05;100.00;97179.43;646462;216;31557;-76
2021/12/17 13:44:02;;;;;;;2.20;2.00;;;5.10;1.40;;;7.16;100.00;97174.48;620039;222;31891;-76
2021/12/17 13:46:46;;;;;;;2.60;2.40;;;5.00;1.40;;;7.16;100.00;97179.08;647184;216;31568;-76
2021/12/17 13:49:28;;;;;;;1.60;1.50;;;4.90;1.40;;;7.13;100.00;97185.01;647178;216;31526;-76
2021/12/17 13:52:12;;;;;;;2.12;2.03;;;5.10;1.40;;;7.21;100.00;97184.30;646616;212;42187;-77
2021/12/17 13:54:54;;;;;;;2.33;2.13;;;5.20;1.40;;;7.29;100.00;97185.39;647508;216;31533;-76
2021/12/17 13:57:35;;;;;;;2.33;1.70;;;5.10;1.40;;;7.03;100.00;97192.70;646133;216;31600;-76
2021/12/17 14:00:20;;;;;;;3.13;2.93;;;5.00;1.40;;;6.82;100.00;97205.13;620149;222;31906;-76
2021/12/17 14:03:00;;;;;;;1.90;1.80;;;4.90;1.40;;;6.94;100.00;97205.36;646953;216;31666;-76
2021/12/17 14:05:48;;;;;;;2.67;2.33;;;4.90;1.40;;;6.37;100.00;97208.06;638638;216;31761;-76
2021/12/17 14:08:26;;;;;;;3.00;2.50;;;4.80;1.40;;;6.62;100.00;97210.87;647302;216;31551;-76
2021/12/17 14:11:25;;;;;;;3.03;2.80;;;4.90;1.40;;;6.77;100.00;97208.48;646202;216;31541;-76
2021/12/17 14:14:06;;;;;;;2.47;2.03;;;4.90;1.40;;;5.61;100.00;97219.73;619269;226;31886;-76
2021/12/17 14:16:48;;;;;;;2.08;1.98;;;4.50;1.40;;;5.67;100.00;97218.69;647427;216;42014;-76
2021/12/17 14:19:42;;;;;;;2.33;2.13;;;4.50;1.40;;;5.94;100.00;97226.48;646290;216;31643;-75
2021/12/17 14:22:28;;;;;;;3.10;2.90;;;4.70;1.40;;;6.15;100.00;97222.97;646578;216;31587;-75
2021/12/17 14:25:27;;;;;;;3.05;2.12;;;4.70;1.40;;;6.12;100.00;97221.35;646714;212;42215;-77
2021/12/17 14:28:16;;;;;;;3.30;3.00;;;4.60;1.40;;;5.76;100.00;97231.08;619472;226;31889;-76
2021/12/17 14:35:57;;;;;;;3.72;3.00;;;4.60;1.40;;;5.47;100.00;97216.97;646116;216;31559;-77
2021/12/17 14:38:48;;;;;;;3.40;3.20;;;4.50;1.40;;;5.50;100.00;97217.53;648318;216;31682;-77
2021/12/17 14:41:38;;;;;;;2.22;1.90;;;4.40;1.40;;;5.33;100.00;97215.70;647373;212;31817;-75
2021/12/17 14:47:15;;;;;;;2.12;1.92;;;4.30;1.40;;;5.31;100.00;97218.83;646609;212;31581;-76
2021/12/17 14:59:48;;;;;;;2.90;2.53;;;4.50;1.40;;;6.09;100.00;97214.03;647148;216;31643;-76
2021/12/17 15:01:17;;;;;;;3.63;2.10;;;4.50;1.40;;;6.05;100.00;97213.07;648122;216;31582;-75